Black Eagle, MT (59414)

11:59 AM MST on December 28, 2014 (GMT -0700)
Spicer's | Change Station
CLOSE
Current Station
Personal Weather Station
Location: Great Falls, MT
Elevation: 3323 ft
Nearby Weather Stations

Elev 3323 ft 47.51 °N, 111.32 °W | Updated 11 seconds ago

Snow
Snow
17.8 °F
Feels Like 12 °F
N
4.0
Wind Variable Wind from NE

Today
High -- | Low -- °F
--% Chance of Precip.
Yesterday
High -- | Low -- °F
Precip. -- in
8:12 AM 4:41 PM
Waxing Crescent, 50% visible
Pressure 30.28 in
Visibility 0.2 miles
Clouds
Windchill 12 °F
Dew Point 12 °F
Humidity 76%
Rainfall -999.00 in
Snow Depth Not available.
UV Not available.
Pollen .10 out of 12
Air Quality Not available.
Flu Activity Not available.
METAR KGTF 281853Z 34012KT 1/4SM +SN FZFG VV007 M11/M12 A3009 RMK AO2 SLP253 P0003 T11111122 $

More Conditions Fewer Conditions

Pressure 30.28 in
Visibility 0.2 miles
Clouds
Windchill 12 °F
Dew Point 12 °F
Humidity 76%
Rainfall -999.00 in
Snow Depth Not available.
UV Not available.
Pollen .10 out of 12
Air Quality Not available.
Flu Activity Not available.
METAR KGTF 281853Z 34012KT 1/4SM +SN FZFG VV007 M11/M12 A3009 RMK AO2 SLP253 P0003 T11111122 $

More Conditions Fewer Conditions

10-Day Weather Forecast

Almanac

Astronomy

Dec. 28, 2014 Rise Set
Actual Time
Civil Twilight
Nautical Twilight
Astronomical Twilight
Moon
Length of Visible Light
Length of Day
Tomorrow will be .
, % of the Moon is Illuminated

Today's Extremes

State Highs State Lows

Community

WunderPhotos

Upload Photos

1,781,383 photos uploaded!

WunderBlogs® & News

Nearby

Air Quality

  Air Quality AQ Index Pollutant
Not available.

Snow Depth

Station Depth Elevation

Earthquake Activity

City Distance Mag. Time & Date
Minimum magnitude displayed is 2.5.

Coastal Water Temperatures

Place Temperature

Nearby Weather Stations